Time;durP1;ratioP1;P1;durP2;ratioP2;P2;SDS_P1;SDS_P2;PMS_P1;PMS_P2;Temp;Humidity;BMP_temperature;BMP_pressure;BME280_temperature;BME280_humidity;BME280_pressure;Samples;Min_cycle;Max_cycle;Signal;HPM_P1;HPM_P2
2022/04/24 00:00:00;;;;;;;6.30;5.70;;;20.10;53.70;;;;;;5072018;28;20174;-71
2022/04/24 00:02:26;;;;;;;6.05;5.55;;;20.20;53.70;;;;;;5070955;28;20186;-71
2022/04/24 00:04:52;;;;;;;5.97;5.45;;;20.20;53.70;;;;;;5070778;28;20738;-71
2022/04/24 00:07:17;;;;;;;6.45;5.85;;;20.10;53.70;;;;;;5054123;28;20192;-71
2022/04/24 00:09:43;;;;;;;6.10;5.60;;;20.10;53.60;;;;;;5070575;28;20224;-71
2022/04/24 00:12:15;;;;;;;5.85;5.32;;;20.10;53.60;;;;;;5070698;28;20194;-71
2022/04/24 00:14:43;;;;;;;5.80;5.30;;;20.10;53.60;;;;;;5071857;28;20237;-71
2022/04/24 00:17:09;;;;;;;6.05;5.55;;;20.20;53.80;;;;;;5070837;28;20193;-71
2022/04/24 00:19:35;;;;;;;5.82;5.15;;;20.20;53.70;;;;;;5070683;28;20212;-70
2022/04/24 00:22:01;;;;;;;5.97;5.40;;;20.10;53.60;;;;;;5070538;28;20217;-70
2022/04/24 00:24:27;;;;;;;6.50;5.90;;;20.10;53.60;;;;;;5054125;28;20289;-71
2022/04/24 00:26:54;;;;;;;6.60;6.00;;;20.10;53.60;;;;;;5071686;28;20221;-70
2022/04/24 00:29:23;;;;;;;5.85;5.38;;;20.10;53.60;;;;;;5074670;28;20189;-70
2022/04/24 00:31:49;;;;;;;7.10;6.50;;;20.10;53.60;;;;;;5074610;28;20190;-70
2022/04/24 00:34:14;;;;;;;6.97;6.38;;;20.10;53.60;;;;;;5074194;28;20213;-71
2022/04/24 00:36:40;;;;;;;6.55;6.03;;;20.10;53.60;;;;;;5074504;28;20189;-71
2022/04/24 00:39:06;;;;;;;6.82;6.22;;;20.10;53.60;;;;;;5074187;28;20222;-71
2022/04/24 00:41:32;;;;;;;7.40;6.70;;;20.10;53.60;;;;;;5075324;28;20192;-71
2022/04/24 00:43:58;;;;;;;7.47;6.13;;;20.10;53.60;;;;;;5074402;28;20198;-71
2022/04/24 00:47:02;;;;;;;6.72;6.13;;;20.10;53.60;;;;;;5074207;28;20248;-71
2022/04/24 00:49:29;;;;;;;6.45;5.85;;;20.10;53.60;;;;;;5057654;28;20181;-70
2022/04/24 00:51:56;;;;;;;5.97;5.47;;;20.10;53.60;;;;;;5073809;28;20189;-71
2022/04/24 00:54:22;;;;;;;6.30;5.70;;;20.10;53.60;;;;;;5057194;28;20286;-70
2022/04/24 00:56:47;;;;;;;6.32;5.72;;;20.10;53.60;;;;;;5057420;28;20177;-71
2022/04/24 00:59:15;;;;;;;5.75;5.25;;;20.10;53.60;;;;;;5074174;28;20240;-71
2022/04/24 01:01:42;;;;;;;5.82;5.32;;;20.10;53.60;;;;;;5073891;28;20265;-71
2022/04/24 01:04:10;;;;;;;5.82;5.32;;;20.10;53.50;;;;;;5073705;28;20201;-71
2022/04/24 01:06:40;;;;;;;6.25;5.72;;;20.10;53.50;;;;;;5073980;28;20182;-71
2022/04/24 01:09:20;;;;;;;6.85;6.25;;;20.10;53.50;;;;;;5073859;28;20190;-71
2022/04/24 01:11:55;;;;;;;6.75;6.15;;;20.10;53.50;;;;;;5073807;28;20190;-71
2022/04/24 01:14:27;;;;;;;7.40;6.80;;;20.10;53.50;;;;;;5040171;28;20237;-71
2022/04/24 01:16:54;;;;;;;6.38;5.88;;;20.10;53.50;;;;;;5057000;28;20204;-71
2022/04/24 01:19:20;;;;;;;6.60;6.10;;;20.10;53.50;;;;;;5056985;28;20300;-70
2022/04/24 01:21:48;;;;;;;6.43;5.82;;;20.10;53.50;;;;;;5073343;28;20182;-71
2022/04/24 01:24:20;;;;;;;5.68;5.18;;;20.10;53.60;;;;;;5074654;28;20254;-71
2022/04/24 01:26:46;;;;;;;5.70;5.22;;;20.10;53.50;;;;;;5056994;28;20257;-71
2022/04/24 01:29:14;;;;;;;5.68;5.18;;;20.10;53.50;;;;;;5056269;28;20220;-71
2022/04/24 01:31:41;;;;;;;6.28;5.68;;;20.10;53.50;;;;;;5073061;28;20181;-71
2022/04/24 01:34:07;;;;;;;6.30;5.70;;;20.10;53.60;;;;;;5040136;28;20202;-71
2022/04/24 01:36:33;;;;;;;6.40;5.90;;;20.10;53.60;;;;;;5073480;28;20182;-71
2022/04/24 01:38:59;;;;;;;6.05;5.45;;;20.10;53.50;;;;;;5072324;28;20374;-71
2022/04/24 01:41:24;;;;;;;6.40;5.90;;;20.10;53.50;;;;;;5074179;28;20180;-71
2022/04/24 01:43:50;;;;;;;6.00;5.50;;;20.10;53.50;;;;;;5072944;28;20206;-70
2022/04/24 01:46:16;;;;;;;6.15;5.55;;;20.10;53.50;;;;;;5056376;28;20173;-71
2022/04/24 01:48:42;;;;;;;6.25;5.68;;;20.10;53.50;;;;;;5073029;28;20194;-70
2022/04/24 01:51:10;;;;;;;6.97;6.28;;;20.10;53.50;;;;;;5072767;28;20189;-70
2022/04/24 01:53:36;;;;;;;7.20;6.53;;;20.10;53.50;;;;;;5072736;28;20186;-70
2022/04/24 01:56:06;;;;;;;7.32;6.63;;;20.10;53.50;;;;;;5039818;28;20178;-70
2022/04/24 01:58:33;;;;;;;8.10;7.40;;;20.10;53.50;;;;;;5056243;28;20205;-70
2022/04/24 02:00:58;;;;;;;7.68;6.97;;;20.10;53.50;;;;;;5039148;28;20184;-71
2022/04/24 02:03:26;;;;;;;7.53;6.80;;;20.10;54.10;;;;;;5072982;28;20173;-70
2022/04/24 02:05:53;;;;;;;7.75;7.13;;;20.10;53.60;;;;;;5039308;28;20174;-71
2022/04/24 02:08:19;;;;;;;7.68;7.07;;;20.10;53.50;;;;;;5072906;28;20189;-71
2022/04/24 02:10:45;;;;;;;7.25;6.55;;;20.10;53.50;;;;;;5039402;28;20217;-71
2022/04/24 02:13:11;;;;;;;7.43;6.72;;;20.10;53.50;;;;;;5039205;28;20685;-71
2022/04/24 02:15:37;;;;;;;6.60;6.00;;;20.10;53.50;;;;;;5072719;28;20209;-71
2022/04/24 02:18:03;;;;;;;6.75;6.15;;;20.10;53.50;;;;;;5073465;28;20205;-71
2022/04/24 02:20:29;;;;;;;6.28;5.78;;;20.10;53.50;;;;;;5055288;28;20347;-71
2022/04/24 02:22:57;;;;;;;6.43;5.93;;;20.10;53.50;;;;;;5055766;28;20288;-70
2022/04/24 02:25:27;;;;;;;6.10;5.60;;;20.10;53.50;;;;;;5073432;28;20208;-71
2022/04/24 02:27:54;;;;;;;6.10;5.60;;;20.00;53.50;;;;;;5038103;28;20186;-70
2022/04/24 02:30:28;;;;;;;6.30;5.70;;;20.00;53.50;;;;;;5068297;28;20184;-71
2022/04/24 02:32:59;;;;;;;6.88;6.28;;;20.10;53.50;;;;;;5072002;28;20214;-69
2022/04/24 02:35:27;;;;;;;6.72;6.13;;;20.10;53.50;;;;;;5038732;28;20229;-71
2022/04/24 02:37:53;;;;;;;6.65;6.15;;;20.00;53.50;;;;;;5072021;28;20213;-71
2022/04/24 02:40:21;;;;;;;7.68;6.97;;;20.10;53.50;;;;;;5073136;28;20642;-68
2022/04/24 02:42:51;;;;;;;7.75;7.05;;;20.00;53.40;;;;;;5055530;28;20170;-70
2022/04/24 02:45:19;;;;;;;7.90;7.10;;;20.10;53.50;;;;;;5038590;28;20210;-71
2022/04/24 02:47:46;;;;;;;7.88;7.20;;;20.10;53.50;;;;;;5071755;28;20173;-71
2022/04/24 02:50:13;;;;;;;7.97;7.28;;;20.00;53.50;;;;;;5038222;28;20186;-71
2022/04/24 02:52:56;;;;;;;7.72;7.03;;;20.10;53.50;;;;;;5071618;28;20185;-70
2022/04/24 02:55:23;;;;;;;6.57;5.97;;;20.00;53.40;;;;;;5055200;28;20232;-70
2022/04/24 02:57:50;;;;;;;6.80;6.30;;;20.10;53.50;;;;;;5071717;28;20209;-70
2022/04/24 03:00:27;;;;;;;6.40;5.80;;;20.00;53.40;;;;;;5054788;28;20178;-70
2022/04/24 03:02:53;;;;;;;6.55;5.95;;;20.00;53.50;;;;;;5055003;28;20166;-70
2022/04/24 03:05:22;;;;;;;6.97;6.38;;;20.00;53.50;;;;;;5038418;28;20207;-70
2022/04/24 03:07:48;;;;;;;6.57;5.97;;;20.00;53.50;;;;;;5071729;28;20288;-71
2022/04/24 03:10:16;;;;;;;6.55;5.97;;;20.00;53.40;;;;;;5054539;28;20656;-71
2022/04/24 03:12:43;;;;;;;6.90;6.20;;;20.10;53.50;;;;;;5054849;28;20324;-71
2022/04/24 03:15:12;;;;;;;7.60;6.90;;;20.00;53.40;;;;;;5054723;28;20209;-70
2022/04/24 03:17:38;;;;;;;8.13;7.32;;;20.10;53.50;;;;;;5072402;28;20270;-70
2022/04/24 03:20:08;;;;;;;9.07;8.27;;;20.00;53.40;;;;;;5021964;28;20198;-70
2022/04/24 03:22:34;;;;;;;8.05;7.30;;;20.00;53.40;;;;;;5071337;28;20181;-70
2022/04/24 03:25:03;;;;;;;8.30;7.60;;;20.00;53.40;;;;;;5072503;28;20219;-71
2022/04/24 03:27:29;;;;;;;9.05;8.20;;;20.00;53.40;;;;;;5071246;28;20189;-71
2022/04/24 03:29:55;;;;;;;8.65;7.85;;;20.00;53.40;;;;;;5054713;28;20224;-70
2022/04/24 03:32:21;;;;;;;9.15;8.35;;;20.00;53.40;;;;;;5054475;28;20224;-71
2022/04/24 03:34:47;;;;;;;9.20;8.35;;;20.00;53.40;;;;;;5054629;28;20247;-71
2022/04/24 03:37:13;;;;;;;8.35;7.60;;;20.00;53.40;;;;;;5072201;28;20266;-71
2022/04/24 03:39:38;;;;;;;7.50;6.85;;;20.00;53.40;;;;;;5054386;28;20185;-70
2022/04/24 03:42:06;;;;;;;7.95;7.22;;;20.00;53.50;;;;;;5037912;28;20189;-71
2022/04/24 03:44:33;;;;;;;7.03;6.35;;;20.00;53.40;;;;;;5070910;28;20305;-71
2022/04/24 03:46:59;;;;;;;7.22;6.32;;;20.00;53.40;;;;;;5037691;28;20271;-71
2022/04/24 03:49:26;;;;;;;7.88;7.18;;;20.00;53.40;;;;;;5054211;28;20563;-71
2022/04/24 03:51:53;;;;;;;7.30;6.70;;;20.00;53.40;;;;;;5054220;28;20387;-71
2022/04/24 03:54:19;;;;;;;6.90;6.30;;;20.00;53.40;;;;;;5070829;28;20220;-71
2022/04/24 03:56:45;;;;;;;7.13;6.53;;;20.00;53.40;;;;;;5054225;28;20184;-71
2022/04/24 03:59:11;;;;;;;7.53;6.82;;;20.00;53.50;;;;;;5054181;28;20209;-71
2022/04/24 04:01:36;;;;;;;7.00;6.40;;;20.00;53.40;;;;;;5054624;28;20185;-71
2022/04/24 04:04:02;;;;;;;7.65;6.97;;;20.00;53.40;;;;;;5058083;28;20201;-70
2022/04/24 04:06:28;;;;;;;7.10;6.50;;;20.00;53.40;;;;;;5041882;28;20246;-71
2022/04/24 04:08:54;;;;;;;7.22;6.53;;;20.00;53.40;;;;;;5058020;28;20193;-71
2022/04/24 04:11:20;;;;;;;7.93;7.22;;;20.00;53.40;;;;;;5041318;28;20220;-71
2022/04/24 04:13:46;;;;;;;7.47;6.88;;;20.00;53.40;;;;;;5074965;28;20232;-71
2022/04/24 04:16:12;;;;;;;7.97;7.28;;;20.00;53.40;;;;;;5057943;28;20186;-71
2022/04/24 04:18:38;;;;;;;6.78;6.18;;;20.00;53.40;;;;;;5058005;28;20194;-71
2022/04/24 04:21:04;;;;;;;6.93;6.38;;;20.00;53.40;;;;;;5057725;28;20197;-71
2022/04/24 04:23:30;;;;;;;6.38;5.88;;;20.00;53.40;;;;;;5057956;28;20181;-70
2022/04/24 04:25:56;;;;;;;6.97;6.28;;;20.00;53.40;;;;;;5057967;28;20199;-71
2022/04/24 04:28:22;;;;;;;6.45;5.93;;;20.00;53.40;;;;;;5074460;28;20186;-71
2022/04/24 04:30:48;;;;;;;5.82;5.32;;;20.00;53.40;;;;;;5040894;28;20184;-70
2022/04/24 04:33:14;;;;;;;5.45;4.95;;;20.00;53.40;;;;;;5074414;28;20189;-71
2022/04/24 04:35:40;;;;;;;6.10;5.50;;;20.00;53.40;;;;;;5074132;28;20202;-71
2022/04/24 04:38:06;;;;;;;6.15;5.55;;;20.00;53.40;;;;;;5074333;28;20197;-70
2022/04/24 04:40:32;;;;;;;5.75;5.25;;;20.00;53.40;;;;;;5057504;28;20190;-71
2022/04/24 04:42:57;;;;;;;5.05;4.65;;;20.00;53.40;;;;;;5057533;28;20188;-71
2022/04/24 04:45:25;;;;;;;5.65;5.15;;;20.00;53.40;;;;;;5057470;28;20200;-70
2022/04/24 04:47:51;;;;;;;5.05;4.65;;;20.00;53.40;;;;;;5040720;28;20243;-71
2022/04/24 04:50:18;;;;;;;5.38;4.97;;;20.00;53.40;;;;;;5075122;28;20223;-71
2022/04/24 04:52:44;;;;;;;5.57;5.07;;;20.00;53.40;;;;;;5057377;28;20196;-71
2022/04/24 04:57:45;;;;;;;5.03;4.63;;;20.00;53.40;;;;;;5093868;28;20228;-69
2022/04/24 05:00:13;;;;;;;5.10;4.70;;;20.00;53.40;;;;;;5077337;28;20735;-70
2022/04/24 05:02:40;;;;;;;5.43;4.93;;;20.00;53.40;;;;;;5077199;28;20246;-69
2022/04/24 05:05:08;;;;;;;4.43;4.03;;;20.00;53.40;;;;;;5077128;28;20201;-69
2022/04/24 05:07:36;;;;;;;4.18;3.88;;;20.00;53.60;;;;;;5082598;28;20184;-69
2022/04/24 05:10:04;;;;;;;4.30;3.90;;;20.00;53.30;;;;;;5095279;28;20209;-69
2022/04/24 05:12:30;;;;;;;3.97;3.67;;;20.00;53.30;;;;;;5094867;28;20645;-69
2022/04/24 05:15:05;;;;;;;4.25;3.95;;;20.00;53.30;;;;;;5076011;28;20193;-69
2022/04/24 05:17:33;;;;;;;4.18;3.78;;;20.00;53.20;;;;;;5093755;28;20196;-69
2022/04/24 05:20:00;;;;;;;4.28;3.95;;;19.90;53.20;;;;;;5077108;28;20189;-69
2022/04/24 05:22:26;;;;;;;4.30;4.00;;;20.00;53.20;;;;;;5077067;28;20177;-69
2022/04/24 05:24:51;;;;;;;4.10;3.80;;;20.00;53.30;;;;;;5077106;28;20312;-69
2022/04/24 05:27:19;;;;;;;3.95;3.65;;;19.90;53.20;;;;;;5093950;28;20180;-69
2022/04/24 05:29:45;;;;;;;4.00;3.70;;;20.00;53.30;;;;;;5093864;28;20185;-69
2022/04/24 05:32:11;;;;;;;3.85;3.55;;;19.90;53.20;;;;;;5093599;28;20188;-69
2022/04/24 05:34:37;;;;;;;4.15;3.85;;;20.00;53.30;;;;;;5085068;28;20201;-69
2022/04/24 05:37:04;;;;;;;3.70;3.40;;;20.00;53.20;;;;;;5081198;28;20178;-69
2022/04/24 05:39:31;;;;;;;4.05;3.70;;;20.00;53.20;;;;;;5060598;28;20221;-69
2022/04/24 05:41:57;;;;;;;4.40;4.03;;;20.00;53.20;;;;;;5073003;28;20186;-69
2022/04/24 05:44:23;;;;;;;3.88;3.40;;;19.90;53.20;;;;;;5056326;28;20244;-69
2022/04/24 05:46:49;;;;;;;3.97;3.67;;;20.00;53.20;;;;;;5056700;28;20280;-69
2022/04/24 05:49:14;;;;;;;3.72;3.40;;;19.90;53.10;;;;;;5074610;28;20243;-69
2022/04/24 05:51:40;;;;;;;3.88;3.58;;;20.00;53.20;;;;;;5073973;28;20178;-69
2022/04/24 05:54:06;;;;;;;3.33;3.13;;;19.90;53.10;;;;;;5072953;28;20287;-69
2022/04/24 05:56:32;;;;;;;3.45;3.22;;;19.90;53.10;;;;;;5056070;28;20203;-69
2022/04/24 05:58:57;;;;;;;3.03;2.83;;;19.90;53.10;;;;;;5073957;28;20267;-69
2022/04/24 06:01:23;;;;;;;3.17;2.88;;;19.90;53.10;;;;;;5072543;28;20201;-69
2022/04/24 06:03:49;;;;;;;3.00;2.80;;;19.90;53.10;;;;;;5073848;28;20181;-69
2022/04/24 06:06:16;;;;;;;3.50;3.20;;;19.90;53.10;;;;;;5073819;28;20185;-69
2022/04/24 06:08:43;;;;;;;2.83;2.63;;;19.90;53.10;;;;;;5073760;28;20217;-69
2022/04/24 06:11:09;;;;;;;3.20;2.90;;;19.90;53.00;;;;;;5072433;28;20194;-69
2022/04/24 06:13:35;;;;;;;2.80;2.60;;;20.00;53.20;;;;;;5056018;28;20200;-69
2022/04/24 06:16:01;;;;;;;2.78;2.58;;;19.90;53.10;;;;;;5055563;28;20569;-69
2022/04/24 06:18:28;;;;;;;3.00;2.80;;;19.90;53.10;;;;;;5055590;28;20205;-69
2022/04/24 06:20:54;;;;;;;3.03;2.83;;;19.90;53.10;;;;;;5072484;28;20185;-69
2022/04/24 06:23:20;;;;;;;2.85;2.65;;;19.90;53.10;;;;;;5072324;28;20186;-69
2022/04/24 06:25:46;;;;;;;2.70;2.50;;;19.90;53.10;;;;;;5055140;28;20198;-69
2022/04/24 06:28:12;;;;;;;2.75;2.55;;;19.90;53.10;;;;;;5055808;28;20222;-69
2022/04/24 06:30:40;;;;;;;2.90;2.70;;;19.90;53.10;;;;;;5055323;28;20193;-69
2022/04/24 06:33:12;;;;;;;2.83;2.63;;;19.90;53.00;;;;;;5055797;28;20250;-70
2022/04/24 06:35:39;;;;;;;2.70;2.50;;;19.90;53.00;;;;;;5073210;28;20579;-70
2022/04/24 06:38:05;;;;;;;2.38;2.20;;;19.90;53.10;;;;;;5055537;28;20213;-69
2022/04/24 06:40:32;;;;;;;2.50;2.30;;;19.90;53.10;;;;;;5071774;28;20189;-70
2022/04/24 06:43:07;;;;;;;2.88;2.67;;;19.90;53.10;;;;;;5055208;28;20205;-70
2022/04/24 06:45:39;;;;;;;2.65;2.45;;;19.90;53.10;;;;;;5071645;28;20201;-70
2022/04/24 06:48:10;;;;;;;2.60;2.40;;;19.90;53.10;;;;;;5071766;28;20189;-70
2022/04/24 06:50:40;;;;;;;2.45;2.25;;;19.90;53.10;;;;;;5055274;28;20181;-70
2022/04/24 06:53:09;;;;;;;2.10;2.00;;;19.90;53.10;;;;;;5038410;28;20182;-70
2022/04/24 06:55:43;;;;;;;2.20;1.98;;;19.90;53.10;;;;;;5055145;28;20255;-70
2022/04/24 06:58:13;;;;;;;2.30;1.83;;;19.90;53.10;;;;;;5038134;28;20239;-70
2022/04/24 07:00:42;;;;;;;2.08;1.98;;;19.80;53.00;;;;;;5054917;28;20196;-70
2022/04/24 07:03:23;;;;;;;2.50;2.30;;;19.90;53.10;;;;;;5072611;28;20184;-70
2022/04/24 07:05:56;;;;;;;2.50;2.30;;;19.90;53.10;;;;;;5038217;28;20250;-70
2022/04/24 07:08:24;;;;;;;2.08;1.88;;;19.90;53.10;;;;;;5038511;28;20185;-70
2022/04/24 07:10:50;;;;;;;2.50;2.30;;;19.90;53.10;;;;;;5054677;28;20197;-70
2022/04/24 07:13:16;;;;;;;2.30;2.10;;;19.90;53.00;;;;;;5038329;28;20228;-70
2022/04/24 07:15:42;;;;;;;2.00;1.90;;;19.90;53.00;;;;;;5038033;28;20237;-70
2022/04/24 07:18:10;;;;;;;1.83;1.73;;;19.90;53.10;;;;;;5038337;28;20201;-70
2022/04/24 07:20:37;;;;;;;2.30;2.03;;;19.90;53.00;;;;;;5072290;28;20232;-70
2022/04/24 07:23:05;;;;;;;1.88;1.77;;;19.90;53.10;;;;;;5059797;28;20177;-70
2022/04/24 07:25:39;;;;;;;1.83;1.73;;;19.90;53.00;;;;;;5074613;28;20197;-71
2022/04/24 07:28:05;;;;;;;1.63;1.52;;;19.90;53.00;;;;;;5074558;28;20257;-74
2022/04/24 07:30:31;;;;;;;2.53;1.95;;;19.90;53.10;;;;;;5091160;28;20551;-71
2022/04/24 07:32:59;;;;;;;2.20;2.00;;;19.90;53.10;;;;;;5091652;28;20187;-71
2022/04/24 07:35:31;;;;;;;2.10;1.80;;;19.90;53.10;;;;;;5091363;28;20262;-70
2022/04/24 07:37:57;;;;;;;2.30;2.10;;;19.90;53.00;;;;;;5090652;28;20655;-71
2022/04/24 07:40:27;;;;;;;3.40;1.70;;;19.90;53.20;;;;;;5091456;28;20189;-70
2022/04/24 07:43:05;;;;;;;1.73;1.63;;;19.90;53.30;;;;;;5073801;28;20656;-70
2022/04/24 07:45:49;;;;;;;2.00;1.90;;;19.90;53.20;;;;;;5080125;28;20209;-70
2022/04/24 07:48:18;;;;;;;1.85;1.75;;;19.90;53.20;;;;;;5069379;28;20189;-70
2022/04/24 07:50:50;;;;;;;1.83;1.70;;;19.90;53.20;;;;;;5091535;28;20189;-71
2022/04/24 07:53:18;;;;;;;2.15;2.05;;;19.90;53.30;;;;;;5092459;28;20184;-69
2022/04/24 07:55:47;;;;;;;2.28;1.83;;;19.90;53.20;;;;;;5074503;28;20223;-69
2022/04/24 07:58:14;;;;;;;2.00;1.50;;;19.90;53.20;;;;;;5090951;28;20200;-69
2022/04/24 08:00:41;;;;;;;2.90;1.58;;;19.90;53.20;;;;;;5091157;28;20181;-69
2022/04/24 08:03:11;;;;;;;2.10;1.73;;;19.90;53.20;;;;;;5074485;28;20212;-70
2022/04/24 08:05:42;;;;;;;1.73;1.63;;;19.90;53.20;;;;;;5074067;28;20193;-69
2022/04/24 08:08:14;;;;;;;2.50;1.70;;;19.90;53.20;;;;;;5092279;28;20165;-69
2022/04/24 08:10:43;;;;;;;2.03;1.73;;;19.90;53.20;;;;;;5091103;28;20196;-69
2022/04/24 08:13:10;;;;;;;1.85;1.60;;;19.90;53.20;;;;;;5074042;28;20544;-69
2022/04/24 08:15:37;;;;;;;1.52;1.42;;;19.90;53.20;;;;;;5074257;28;20559;-70
2022/04/24 08:18:06;;;;;;;2.83;1.98;;;19.90;53.20;;;;;;5090723;28;20205;-69
2022/04/24 08:20:34;;;;;;;2.42;1.67;;;19.90;53.20;;;;;;5075534;28;20197;-70
2022/04/24 08:23:04;;;;;;;2.97;1.92;;;19.90;53.20;;;;;;5070755;28;20188;-70
2022/04/24 08:25:34;;;;;;;1.92;1.42;;;19.90;53.20;;;;;;5070538;28;20247;-70
2022/04/24 08:28:02;;;;;;;3.53;1.63;;;19.90;53.20;;;;;;5070598;28;20201;-69
2022/04/24 08:30:28;;;;;;;2.85;1.40;;;19.90;53.20;;;;;;5053555;28;20236;-70
2022/04/24 08:32:54;;;;;;;1.60;1.50;;;19.90;53.10;;;;;;5053773;28;20194;-69
2022/04/24 08:35:21;;;;;;;1.30;1.20;;;19.90;53.20;;;;;;5053724;28;20225;-70
2022/04/24 08:37:48;;;;;;;1.65;1.55;;;19.90;53.20;;;;;;5071735;28;20202;-69
2022/04/24 08:40:18;;;;;;;1.60;1.50;;;19.90;53.10;;;;;;5054030;28;20178;-70
2022/04/24 08:42:44;;;;;;;2.13;1.85;;;19.90;53.10;;;;;;5070510;28;20185;-70
2022/04/24 08:45:15;;;;;;;1.60;1.50;;;19.90;53.10;;;;;;5053848;28;20197;-70
2022/04/24 08:47:44;;;;;;;2.75;1.42;;;19.90;53.70;;;;;;5071249;28;20182;-70
2022/04/24 08:50:12;;;;;;;1.65;1.55;;;19.90;53.10;;;;;;5075089;28;20217;-70
2022/04/24 08:52:45;;;;;;;1.42;1.33;;;19.90;53.10;;;;;;5057125;28;20186;-69
2022/04/24 08:55:12;;;;;;;1.77;1.50;;;19.90;53.10;;;;;;5073900;28;20216;-69
2022/04/24 08:57:38;;;;;;;3.45;1.35;;;19.90;53.10;;;;;;5057153;28;20256;-70
2022/04/24 09:00:07;;;;;;;1.30;1.20;;;19.90;53.10;;;;;;5074188;28;20186;-70
2022/04/24 09:02:35;;;;;;;1.38;1.20;;;19.90;53.10;;;;;;5073625;28;20710;-70
2022/04/24 09:05:01;;;;;;;1.60;1.50;;;19.90;53.10;;;;;;5057305;28;20212;-69
2022/04/24 09:07:32;;;;;;;1.35;1.25;;;19.90;53.10;;;;;;5057167;28;20174;-70
2022/04/24 09:10:02;;;;;;;1.65;1.55;;;19.90;53.10;;;;;;5074100;28;20243;-69
2022/04/24 09:12:29;;;;;;;2.42;1.42;;;19.90;53.10;;;;;;5056763;28;20185;-70
2022/04/24 09:14:58;;;;;;;2.45;1.20;;;19.90;53.10;;;;;;5056992;28;20202;-70
2022/04/24 09:17:30;;;;;;;1.48;1.38;;;19.90;53.10;;;;;;5056915;28;20188;-69
2022/04/24 09:19:57;;;;;;;1.65;1.40;;;19.90;53.10;;;;;;5056814;28;20182;-70
2022/04/24 09:22:24;;;;;;;1.20;1.20;;;19.90;53.10;;;;;;5074588;28;20525;-70
2022/04/24 09:24:55;;;;;;;1.83;1.08;;;19.90;53.10;;;;;;5073577;28;20696;-70
2022/04/24 09:27:31;;;;;;;1.40;1.30;;;19.90;53.10;;;;;;5074661;28;20245;-70
2022/04/24 09:30:04;;;;;;;1.27;1.17;;;19.90;53.10;;;;;;5040019;28;20184;-70
2022/04/24 09:32:45;;;;;;;2.80;1.42;;;19.90;53.10;;;;;;5073387;28;20166;-69
2022/04/24 09:35:36;;;;;;;1.92;1.70;;;19.90;53.10;;;;;;5056442;28;20296;-70
2022/04/24 09:38:13;;;;;;;1.60;1.50;;;19.90;53.10;;;;;;5056139;28;20701;-70
2022/04/24 09:40:42;;;;;;;1.73;1.42;;;19.90;53.10;;;;;;5056231;28;20249;-69
2022/04/24 09:43:13;;;;;;;1.30;1.20;;;19.90;53.10;;;;;;5074251;28;20185;-70
2022/04/24 09:45:51;;;;;;;1.33;1.10;;;20.00;53.20;;;;;;5072950;28;20821;-70
2022/04/24 09:48:19;;;;;;;2.65;1.10;;;19.90;53.00;;;;;;5056298;28;20178;-70
2022/04/24 09:50:46;;;;;;;1.48;1.25;;;19.90;53.00;;;;;;5072801;28;20190;-70
2022/04/24 09:53:15;;;;;;;1.60;1.30;;;19.90;53.00;;;;;;5072803;28;20567;-69
2022/04/24 09:55:43;;;;;;;1.45;1.35;;;19.90;53.00;;;;;;5074105;28;20699;-70
2022/04/24 09:58:11;;;;;;;1.58;1.30;;;19.90;53.00;;;;;;5072884;28;20279;-70
2022/04/24 10:00:37;;;;;;;1.88;1.23;;;19.90;53.10;;;;;;5073483;28;20190;-69
2022/04/24 10:03:04;;;;;;;1.80;1.30;;;19.90;53.00;;;;;;5073834;28;20174;-69
2022/04/24 10:05:31;;;;;;;1.30;1.13;;;19.90;53.10;;;;;;5072699;28;20292;-70
2022/04/24 10:07:59;;;;;;;1.67;1.02;;;19.90;53.10;;;;;;5072930;28;20174;-70
2022/04/24 10:10:25;;;;;;;1.98;1.45;;;19.90;53.10;;;;;;5072444;28;20216;-70
2022/04/24 10:12:53;;;;;;;2.35;1.58;;;19.90;53.10;;;;;;5055639;28;20250;-70
2022/04/24 10:15:23;;;;;;;1.45;1.25;;;19.90;53.10;;;;;;5039289;28;20202;-70
2022/04/24 10:18:10;;;;;;;1.25;1.15;;;19.90;53.10;;;;;;5055732;28;20236;-70
2022/04/24 10:20:58;;;;;;;1.20;1.10;;;19.90;53.10;;;;;;5072214;28;20220;-69
2022/04/24 10:23:31;;;;;;;1.48;1.30;;;19.90;53.10;;;;;;5055684;28;20193;-69
2022/04/24 10:25:57;;;;;;;4.28;2.92;;;19.90;53.00;;;;;;5072335;28;20262;-70
2022/04/24 10:28:39;;;;;;;2.88;2.13;;;19.90;53.10;;;;;;5072440;28;20277;-70
2022/04/24 10:31:07;;;;;;;1.98;1.88;;;19.90;53.10;;;;;;5055697;28;20180;-70
2022/04/24 10:33:35;;;;;;;2.22;2.03;;;19.90;53.10;;;;;;5073175;28;20201;-69
2022/04/24 10:36:15;;;;;;;1.88;1.77;;;19.90;53.10;;;;;;5073469;28;20565;-70
2022/04/24 10:38:49;;;;;;;2.45;2.25;;;19.90;53.10;;;;;;5071943;28;20197;-70
2022/04/24 10:41:20;;;;;;;2.72;2.03;;;19.90;53.10;;;;;;5071660;28;20224;-69
2022/04/24 10:43:51;;;;;;;3.10;2.90;;;19.90;53.10;;;;;;5072964;28;20253;-70
2022/04/24 10:46:27;;;;;;;3.13;2.85;;;19.90;53.10;;;;;;5071905;28;20259;-69
2022/04/24 10:48:54;;;;;;;2.75;2.55;;;19.90;53.10;;;;;;5071737;28;20260;-70
2022/04/24 10:51:32;;;;;;;2.85;2.65;;;19.90;53.10;;;;;;5054896;28;20204;-70
2022/04/24 10:54:08;;;;;;;2.38;2.10;;;20.00;53.20;;;;;;5071638;28;20177;-70
2022/04/24 10:59:16;;;;;;;2.13;2.03;;;19.90;53.10;;;;;;5070908;28;20704;-71
2022/04/24 11:01:54;;;;;;;2.50;2.30;;;19.90;53.10;;;;;;5071630;28;20185;-69
2022/04/24 11:04:22;;;;;;;2.42;2.22;;;19.90;53.10;;;;;;5038342;28;20590;-71
2022/04/24 11:07:02;;;;;;;2.20;2.10;;;19.90;53.10;;;;;;5051735;28;20736;-71
2022/04/24 11:09:37;;;;;;;2.50;2.30;;;19.90;53.10;;;;;;5035094;28;20170;-71
2022/04/24 11:12:10;;;;;;;2.10;2.00;;;19.90;53.10;;;;;;5033885;28;20178;-71
2022/04/24 11:14:37;;;;;;;2.92;2.30;;;20.00;53.20;;;;;;5034970;28;20218;-71
2022/04/24 11:17:06;;;;;;;1.90;1.80;;;19.90;53.10;;;;;;5051352;28;20245;-71
2022/04/24 11:19:38;;;;;;;2.42;2.22;;;20.00;53.20;;;;;;5034743;28;20241;-71
2022/04/24 11:22:12;;;;;;;2.65;2.45;;;19.90;53.10;;;;;;5034549;28;20258;-72
2022/04/24 11:24:40;;;;;;;2.10;1.90;;;20.00;53.20;;;;;;5035100;28;20170;-71
2022/04/24 11:27:14;;;;;;;2.10;2.00;;;20.00;53.10;;;;;;5034521;28;20203;-71
2022/04/24 11:29:43;;;;;;;2.03;1.90;;;20.00;53.20;;;;;;5034528;28;20186;-71
2022/04/24 11:32:09;;;;;;;2.40;2.20;;;20.00;53.20;;;;;;5051249;28;20189;-71
2022/04/24 11:34:36;;;;;;;1.70;1.60;;;19.90;53.10;;;;;;5052324;28;20180;-71
2022/04/24 11:37:04;;;;;;;2.03;1.92;;;20.00;53.20;;;;;;5017922;28;20301;-71
2022/04/24 11:39:31;;;;;;;2.38;2.17;;;20.00;53.20;;;;;;5018194;28;20206;-71
2022/04/24 11:42:00;;;;;;;2.30;2.10;;;19.90;53.10;;;;;;5052106;28;20189;-71
2022/04/24 11:50:15;;;;;;;1.65;1.55;;;20.00;53.20;;;;;;5034337;28;20170;-71
2022/04/24 11:52:49;;;;;;;1.60;1.50;;;20.00;53.20;;;;;;5052100;28;20224;-71
2022/04/24 11:55:21;;;;;;;1.80;1.70;;;20.00;53.20;;;;;;5034674;28;20206;-71
2022/04/24 11:57:59;;;;;;;1.80;1.70;;;20.00;53.20;;;;;;5050657;28;20214;-71
2022/04/24 12:00:37;;;;;;;1.73;1.63;;;20.00;53.20;;;;;;5034646;28;20186;-71
2022/04/24 12:03:05;;;;;;;1.60;1.50;;;19.90;53.10;;;;;;5018140;28;20567;-71
2022/04/24 12:05:32;;;;;;;1.98;1.60;;;19.90;53.10;;;;;;5034131;28;20189;-71
2022/04/24 12:07:59;;;;;;;2.00;1.85;;;20.00;53.20;;;;;;5034392;28;20581;-71
2022/04/24 12:10:26;;;;;;;1.40;1.30;;;20.00;53.20;;;;;;5034189;28;20210;-71
2022/04/24 12:12:53;;;;;;;1.63;1.40;;;19.90;53.10;;;;;;5034269;28;20183;-71
2022/04/24 12:15:26;;;;;;;1.40;1.30;;;19.90;53.10;;;;;;5034075;28;20194;-71
2022/04/24 12:17:53;;;;;;;1.75;1.63;;;19.90;53.10;;;;;;5051790;28;20260;-71
2022/04/24 12:20:21;;;;;;;1.50;1.40;;;19.90;53.10;;;;;;5051117;28;20186;-71
2022/04/24 12:22:48;;;;;;;1.58;1.48;;;19.90;53.10;;;;;;5051424;28;20187;-71
2022/04/24 12:25:18;;;;;;;1.58;1.48;;;19.90;53.10;;;;;;5038288;28;20174;-71
2022/04/24 12:27:57;;;;;;;1.50;1.40;;;19.90;53.10;;;;;;5021431;28;20238;-71
2022/04/24 12:30:33;;;;;;;1.58;1.48;;;19.90;53.10;;;;;;5055766;28;20606;-71
2022/04/24 12:33:06;;;;;;;1.70;1.60;;;20.00;53.20;;;;;;5037972;28;20178;-71
2022/04/24 12:35:33;;;;;;;1.48;1.38;;;19.90;53.10;;;;;;5038107;28;20191;-71
2022/04/24 12:38:00;;;;;;;2.08;1.90;;;20.00;53.20;;;;;;5054218;28;20199;-71
2022/04/24 12:40:27;;;;;;;1.48;1.38;;;20.00;53.20;;;;;;5037878;28;20197;-71
2022/04/24 12:42:55;;;;;;;1.67;1.58;;;20.00;53.10;;;;;;5037478;28;20175;-71
2022/04/24 12:45:24;;;;;;;2.30;1.83;;;19.90;53.00;;;;;;5037525;28;20182;-71
2022/04/24 12:47:50;;;;;;;2.33;2.13;;;20.00;53.10;;;;;;5037345;28;20249;-71
2022/04/24 12:50:17;;;;;;;2.72;2.30;;;20.00;53.10;;;;;;5054397;28;20183;-71
2022/04/24 12:52:43;;;;;;;1.80;1.70;;;20.00;53.00;;;;;;5053950;28;20179;-71
2022/04/24 12:55:11;;;;;;;1.88;1.77;;;20.00;53.00;;;;;;5037697;28;20182;-71
2022/04/24 12:57:38;;;;;;;1.52;1.42;;;20.00;53.00;;;;;;5020763;28;20219;-71
2022/04/24 13:00:08;;;;;;;2.10;1.63;;;20.00;53.00;;;;;;5037248;28;20673;-71
2022/04/24 13:02:34;;;;;;;1.50;1.40;;;20.10;53.00;;;;;;5037172;28;20182;-71
2022/04/24 13:05:00;;;;;;;1.63;1.50;;;20.10;53.10;;;;;;5037110;28;20202;-71